sensor_id;sensor_type;location;lat;lon;timestamp;P1;durP1;ratioP1;P2;durP2;ratioP2
7410;SDS011;3747;48.628;9.058;2022-09-09T00:01:00;2.60;;;0.80;;
7410;SDS011;3747;48.628;9.058;2022-09-09T00:03:36;2.33;;;0.73;;
7410;SDS011;3747;48.628;9.058;2022-09-09T00:06:12;4.40;;;0.70;;
7410;SDS011;3747;48.628;9.058;2022-09-09T00:08:47;1.43;;;0.90;;
7410;SDS011;3747;48.628;9.058;2022-09-09T00:11:26;3.03;;;0.77;;
7410;SDS011;3747;48.628;9.058;2022-09-09T00:13:59;2.47;;;1.13;;
7410;SDS011;3747;48.628;9.058;2022-09-09T00:16:29;2.17;;;0.80;;
7410;SDS011;3747;48.628;9.058;2022-09-09T00:19:02;1.73;;;0.97;;
7410;SDS011;3747;48.628;9.058;2022-09-09T00:21:32;2.50;;;1.00;;
7410;SDS011;3747;48.628;9.058;2022-09-09T00:24:01;3.13;;;0.70;;
7410;SDS011;3747;48.628;9.058;2022-09-09T00:26:40;0.90;;;0.50;;
7410;SDS011;3747;48.628;9.058;2022-09-09T00:29:14;2.23;;;0.87;;
7410;SDS011;3747;48.628;9.058;2022-09-09T00:31:49;1.53;;;0.90;;
7410;SDS011;3747;48.628;9.058;2022-09-09T00:34:21;2.43;;;0.87;;
7410;SDS011;3747;48.628;9.058;2022-09-09T00:36:52;2.00;;;0.90;;
7410;SDS011;3747;48.628;9.058;2022-09-09T00:39:23;2.63;;;1.23;;
7410;SDS011;3747;48.628;9.058;2022-09-09T00:41:59;1.83;;;0.90;;
7410;SDS011;3747;48.628;9.058;2022-09-09T00:44:37;1.63;;;0.80;;
7410;SDS011;3747;48.628;9.058;2022-09-09T00:47:17;2.10;;;0.80;;
7410;SDS011;3747;48.628;9.058;2022-09-09T00:49:59;4.53;;;0.93;;
7410;SDS011;3747;48.628;9.058;2022-09-09T00:52:32;1.63;;;0.80;;
7410;SDS011;3747;48.628;9.058;2022-09-09T00:55:07;1.67;;;0.60;;
7410;SDS011;3747;48.628;9.058;2022-09-09T00:57:38;1.77;;;0.83;;
7410;SDS011;3747;48.628;9.058;2022-09-09T01:00:21;1.77;;;0.70;;
7410;SDS011;3747;48.628;9.058;2022-09-09T01:02:52;1.97;;;1.00;;
7410;SDS011;3747;48.628;9.058;2022-09-09T01:05:29;2.63;;;0.80;;
7410;SDS011;3747;48.628;9.058;2022-09-09T01:08:05;1.77;;;0.70;;
7410;SDS011;3747;48.628;9.058;2022-09-09T01:10:43;3.97;;;0.97;;
7410;SDS011;3747;48.628;9.058;2022-09-09T01:13:18;0.93;;;0.60;;
7410;SDS011;3747;48.628;9.058;2022-09-09T01:15:49;2.20;;;0.80;;
7410;SDS011;3747;48.628;9.058;2022-09-09T01:18:19;2.20;;;0.60;;
7410;SDS011;3747;48.628;9.058;2022-09-09T01:20:53;4.27;;;1.10;;
7410;SDS011;3747;48.628;9.058;2022-09-09T01:23:38;1.37;;;0.70;;
7410;SDS011;3747;48.628;9.058;2022-09-09T01:26:17;0.80;;;0.60;;
7410;SDS011;3747;48.628;9.058;2022-09-09T01:28:47;2.27;;;0.80;;
7410;SDS011;3747;48.628;9.058;2022-09-09T01:31:18;1.30;;;0.87;;
7410;SDS011;3747;48.628;9.058;2022-09-09T01:33:47;2.83;;;0.70;;
7410;SDS011;3747;48.628;9.058;2022-09-09T01:36:17;2.67;;;1.07;;
7410;SDS011;3747;48.628;9.058;2022-09-09T01:38:47;2.67;;;0.80;;
7410;SDS011;3747;48.628;9.058;2022-09-09T01:41:14;2.13;;;0.80;;
7410;SDS011;3747;48.628;9.058;2022-09-09T01:43:43;3.57;;;1.03;;
7410;SDS011;3747;48.628;9.058;2022-09-09T01:46:10;3.93;;;1.27;;
7410;SDS011;3747;48.628;9.058;2022-09-09T01:48:38;4.43;;;1.20;;
7410;SDS011;3747;48.628;9.058;2022-09-09T01:51:07;2.53;;;1.00;;
7410;SDS011;3747;48.628;9.058;2022-09-09T01:53:34;5.77;;;1.40;;
7410;SDS011;3747;48.628;9.058;2022-09-09T01:56:07;1.90;;;0.67;;
7410;SDS011;3747;48.628;9.058;2022-09-09T01:58:47;1.00;;;0.90;;
7410;SDS011;3747;48.628;9.058;2022-09-09T02:01:25;5.20;;;1.30;;
7410;SDS011;3747;48.628;9.058;2022-09-09T02:04:02;1.43;;;1.10;;
7410;SDS011;3747;48.628;9.058;2022-09-09T02:06:36;2.33;;;1.53;;
7410;SDS011;3747;48.628;9.058;2022-09-09T02:09:06;2.47;;;0.93;;
7410;SDS011;3747;48.628;9.058;2022-09-09T02:11:37;3.87;;;1.20;;
7410;SDS011;3747;48.628;9.058;2022-09-09T02:14:06;2.63;;;0.87;;
7410;SDS011;3747;48.628;9.058;2022-09-09T02:16:38;2.27;;;0.73;;
7410;SDS011;3747;48.628;9.058;2022-09-09T02:19:09;1.37;;;0.90;;
7410;SDS011;3747;48.628;9.058;2022-09-09T02:21:39;1.50;;;1.00;;
7410;SDS011;3747;48.628;9.058;2022-09-09T02:24:08;2.93;;;0.90;;
7410;SDS011;3747;48.628;9.058;2022-09-09T02:26:37;3.27;;;0.93;;
7410;SDS011;3747;48.628;9.058;2022-09-09T02:29:09;2.73;;;0.83;;
7410;SDS011;3747;48.628;9.058;2022-09-09T02:31:39;2.00;;;0.73;;
7410;SDS011;3747;48.628;9.058;2022-09-09T02:34:08;5.13;;;1.57;;
7410;SDS011;3747;48.628;9.058;2022-09-09T02:36:36;0.90;;;0.67;;
7410;SDS011;3747;48.628;9.058;2022-09-09T02:39:06;2.23;;;0.90;;
7410;SDS011;3747;48.628;9.058;2022-09-09T02:41:35;1.23;;;0.90;;
7410;SDS011;3747;48.628;9.058;2022-09-09T02:44:05;1.93;;;0.90;;
7410;SDS011;3747;48.628;9.058;2022-09-09T02:46:52;1.93;;;0.80;;
7410;SDS011;3747;48.628;9.058;2022-09-09T02:49:35;4.30;;;1.07;;
7410;SDS011;3747;48.628;9.058;2022-09-09T02:52:08;1.33;;;0.70;;
7410;SDS011;3747;48.628;9.058;2022-09-09T02:54:40;1.13;;;0.83;;
7410;SDS011;3747;48.628;9.058;2022-09-09T02:57:09;6.43;;;1.30;;
7410;SDS011;3747;48.628;9.058;2022-09-09T02:59:37;4.90;;;1.10;;
7410;SDS011;3747;48.628;9.058;2022-09-09T03:02:06;2.30;;;1.13;;
7410;SDS011;3747;48.628;9.058;2022-09-09T03:04:35;4.00;;;1.10;;
7410;SDS011;3747;48.628;9.058;2022-09-09T03:07:01;3.50;;;1.00;;
7410;SDS011;3747;48.628;9.058;2022-09-09T03:09:29;1.17;;;0.80;;
7410;SDS011;3747;48.628;9.058;2022-09-09T03:11:56;3.30;;;1.53;;
7410;SDS011;3747;48.628;9.058;2022-09-09T03:14:23;2.80;;;0.87;;
7410;SDS011;3747;48.628;9.058;2022-09-09T03:16:50;1.27;;;0.70;;
7410;SDS011;3747;48.628;9.058;2022-09-09T03:19:18;0.90;;;0.77;;
7410;SDS011;3747;48.628;9.058;2022-09-09T03:21:45;1.60;;;0.90;;
7410;SDS011;3747;48.628;9.058;2022-09-09T03:24:12;2.10;;;1.07;;
7410;SDS011;3747;48.628;9.058;2022-09-09T03:26:39;2.93;;;0.80;;
7410;SDS011;3747;48.628;9.058;2022-09-09T03:29:09;2.60;;;0.93;;
7410;SDS011;3747;48.628;9.058;2022-09-09T03:31:37;1.53;;;0.77;;
7410;SDS011;3747;48.628;9.058;2022-09-09T03:34:04;2.40;;;0.80;;
7410;SDS011;3747;48.628;9.058;2022-09-09T03:36:32;3.70;;;1.40;;
7410;SDS011;3747;48.628;9.058;2022-09-09T03:38:59;2.70;;;1.10;;
7410;SDS011;3747;48.628;9.058;2022-09-09T03:41:28;2.10;;;1.20;;
7410;SDS011;3747;48.628;9.058;2022-09-09T03:43:54;1.13;;;1.00;;
7410;SDS011;3747;48.628;9.058;2022-09-09T03:46:22;2.13;;;1.00;;
7410;SDS011;3747;48.628;9.058;2022-09-09T03:48:51;1.53;;;1.00;;
7410;SDS011;3747;48.628;9.058;2022-09-09T03:51:18;3.70;;;1.10;;
7410;SDS011;3747;48.628;9.058;2022-09-09T03:53:46;1.87;;;0.77;;
7410;SDS011;3747;48.628;9.058;2022-09-09T03:56:13;1.57;;;1.27;;
7410;SDS011;3747;48.628;9.058;2022-09-09T03:58:40;4.20;;;0.97;;
7410;SDS011;3747;48.628;9.058;2022-09-09T04:01:07;3.30;;;1.20;;
7410;SDS011;3747;48.628;9.058;2022-09-09T04:03:35;2.73;;;0.83;;
7410;SDS011;3747;48.628;9.058;2022-09-09T04:06:03;2.77;;;1.40;;
7410;SDS011;3747;48.628;9.058;2022-09-09T04:08:31;1.73;;;1.07;;
7410;SDS011;3747;48.628;9.058;2022-09-09T04:11:00;1.97;;;0.93;;
7410;SDS011;3747;48.628;9.058;2022-09-09T04:13:29;2.97;;;1.00;;
7410;SDS011;3747;48.628;9.058;2022-09-09T04:15:57;2.50;;;0.80;;
7410;SDS011;3747;48.628;9.058;2022-09-09T04:18:25;3.30;;;1.27;;
7410;SDS011;3747;48.628;9.058;2022-09-09T04:20:53;1.63;;;1.30;;
7410;SDS011;3747;48.628;9.058;2022-09-09T04:23:22;3.93;;;1.50;;
7410;SDS011;3747;48.628;9.058;2022-09-09T04:25:50;1.20;;;1.10;;
7410;SDS011;3747;48.628;9.058;2022-09-09T04:28:20;1.30;;;1.00;;
7410;SDS011;3747;48.628;9.058;2022-09-09T04:30:48;4.67;;;1.23;;
7410;SDS011;3747;48.628;9.058;2022-09-09T04:33:15;2.73;;;1.20;;
7410;SDS011;3747;48.628;9.058;2022-09-09T04:35:43;3.37;;;1.03;;
7410;SDS011;3747;48.628;9.058;2022-09-09T04:38:10;2.03;;;1.00;;
7410;SDS011;3747;48.628;9.058;2022-09-09T04:40:37;2.40;;;0.97;;
7410;SDS011;3747;48.628;9.058;2022-09-09T04:43:08;4.23;;;1.60;;
7410;SDS011;3747;48.628;9.058;2022-09-09T04:45:36;2.03;;;1.17;;
7410;SDS011;3747;48.628;9.058;2022-09-09T04:48:05;4.83;;;0.93;;
7410;SDS011;3747;48.628;9.058;2022-09-09T04:50:32;1.57;;;1.03;;
7410;SDS011;3747;48.628;9.058;2022-09-09T04:52:59;1.87;;;1.20;;
7410;SDS011;3747;48.628;9.058;2022-09-09T04:55:26;4.13;;;1.00;;
7410;SDS011;3747;48.628;9.058;2022-09-09T04:57:53;1.87;;;1.23;;
7410;SDS011;3747;48.628;9.058;2022-09-09T05:00:20;3.43;;;0.90;;
7410;SDS011;3747;48.628;9.058;2022-09-09T05:02:48;2.33;;;1.17;;
7410;SDS011;3747;48.628;9.058;2022-09-09T05:05:16;2.00;;;1.03;;
7410;SDS011;3747;48.628;9.058;2022-09-09T05:07:43;2.57;;;1.27;;
7410;SDS011;3747;48.628;9.058;2022-09-09T05:10:10;5.87;;;1.50;;
7410;SDS011;3747;48.628;9.058;2022-09-09T05:12:39;2.53;;;1.10;;
7410;SDS011;3747;48.628;9.058;2022-09-09T05:15:06;1.83;;;0.97;;
7410;SDS011;3747;48.628;9.058;2022-09-09T05:17:33;2.07;;;1.23;;
7410;SDS011;3747;48.628;9.058;2022-09-09T05:20:01;2.03;;;1.10;;
7410;SDS011;3747;48.628;9.058;2022-09-09T05:22:29;1.77;;;0.90;;
7410;SDS011;3747;48.628;9.058;2022-09-09T05:24:55;2.20;;;1.03;;
7410;SDS011;3747;48.628;9.058;2022-09-09T05:27:23;3.33;;;0.90;;
7410;SDS011;3747;48.628;9.058;2022-09-09T05:29:50;2.30;;;0.83;;
7410;SDS011;3747;48.628;9.058;2022-09-09T05:32:17;1.70;;;0.90;;
7410;SDS011;3747;48.628;9.058;2022-09-09T05:34:43;1.83;;;0.90;;
7410;SDS011;3747;48.628;9.058;2022-09-09T05:37:13;3.10;;;1.20;;
7410;SDS011;3747;48.628;9.058;2022-09-09T05:39:39;3.60;;;1.00;;
7410;SDS011;3747;48.628;9.058;2022-09-09T05:42:06;2.10;;;1.00;;
7410;SDS011;3747;48.628;9.058;2022-09-09T05:44:33;2.33;;;0.80;;
7410;SDS011;3747;48.628;9.058;2022-09-09T05:46:59;2.27;;;1.40;;
7410;SDS011;3747;48.628;9.058;2022-09-09T05:49:26;2.33;;;1.10;;
7410;SDS011;3747;48.628;9.058;2022-09-09T05:51:53;2.10;;;0.87;;
7410;SDS011;3747;48.628;9.058;2022-09-09T05:54:21;3.13;;;1.10;;
7410;SDS011;3747;48.628;9.058;2022-09-09T05:56:48;2.10;;;0.80;;
7410;SDS011;3747;48.628;9.058;2022-09-09T05:59:15;1.03;;;0.87;;
7410;SDS011;3747;48.628;9.058;2022-09-09T06:01:43;3.97;;;1.07;;
7410;SDS011;3747;48.628;9.058;2022-09-09T06:04:10;2.80;;;1.20;;
7410;SDS011;3747;48.628;9.058;2022-09-09T06:06:37;2.27;;;1.00;;
7410;SDS011;3747;48.628;9.058;2022-09-09T06:09:05;2.73;;;1.00;;
7410;SDS011;3747;48.628;9.058;2022-09-09T06:11:36;1.40;;;1.03;;
7410;SDS011;3747;48.628;9.058;2022-09-09T06:14:04;3.40;;;1.30;;
7410;SDS011;3747;48.628;9.058;2022-09-09T06:16:31;4.07;;;1.10;;
7410;SDS011;3747;48.628;9.058;2022-09-09T06:18:59;2.63;;;1.17;;
7410;SDS011;3747;48.628;9.058;2022-09-09T06:21:27;2.53;;;0.90;;
7410;SDS011;3747;48.628;9.058;2022-09-09T06:23:55;3.50;;;1.30;;
7410;SDS011;3747;48.628;9.058;2022-09-09T06:26:22;2.20;;;0.97;;
7410;SDS011;3747;48.628;9.058;2022-09-09T06:28:52;1.27;;;0.70;;
7410;SDS011;3747;48.628;9.058;2022-09-09T06:31:21;2.50;;;1.23;;
7410;SDS011;3747;48.628;9.058;2022-09-09T06:33:49;1.67;;;0.90;;
7410;SDS011;3747;48.628;9.058;2022-09-09T06:36:17;2.97;;;1.20;;
7410;SDS011;3747;48.628;9.058;2022-09-09T06:38:45;1.37;;;0.80;;
7410;SDS011;3747;48.628;9.058;2022-09-09T06:41:13;3.43;;;0.93;;
7410;SDS011;3747;48.628;9.058;2022-09-09T06:43:41;1.83;;;1.10;;
7410;SDS011;3747;48.628;9.058;2022-09-09T06:46:10;3.27;;;1.10;;
7410;SDS011;3747;48.628;9.058;2022-09-09T06:48:38;4.30;;;0.97;;
7410;SDS011;3747;48.628;9.058;2022-09-09T06:51:07;3.23;;;1.00;;
7410;SDS011;3747;48.628;9.058;2022-09-09T06:53:36;1.63;;;0.73;;
7410;SDS011;3747;48.628;9.058;2022-09-09T06:56:17;1.63;;;1.10;;
7410;SDS011;3747;48.628;9.058;2022-09-09T06:58:45;2.97;;;1.30;;
7410;SDS011;3747;48.628;9.058;2022-09-09T07:01:16;3.17;;;1.30;;
7410;SDS011;3747;48.628;9.058;2022-09-09T07:03:45;2.20;;;1.00;;
7410;SDS011;3747;48.628;9.058;2022-09-09T07:06:13;2.53;;;1.13;;
7410;SDS011;3747;48.628;9.058;2022-09-09T07:08:42;0.63;;;0.63;;
7410;SDS011;3747;48.628;9.058;2022-09-09T07:11:08;2.13;;;0.80;;
7410;SDS011;3747;48.628;9.058;2022-09-09T07:13:36;1.50;;;0.83;;
7410;SDS011;3747;48.628;9.058;2022-09-09T07:16:05;1.33;;;0.70;;
7410;SDS011;3747;48.628;9.058;2022-09-09T07:18:34;2.73;;;0.87;;
7410;SDS011;3747;48.628;9.058;2022-09-09T07:21:04;1.33;;;0.90;;
7410;SDS011;3747;48.628;9.058;2022-09-09T07:23:31;2.47;;;0.90;;
7410;SDS011;3747;48.628;9.058;2022-09-09T07:26:00;2.73;;;0.93;;
7410;SDS011;3747;48.628;9.058;2022-09-09T07:28:27;2.27;;;0.73;;
7410;SDS011;3747;48.628;9.058;2022-09-09T07:30:54;2.00;;;0.80;;
7410;SDS011;3747;48.628;9.058;2022-09-09T07:33:21;6.07;;;1.07;;
7410;SDS011;3747;48.628;9.058;2022-09-09T07:35:50;2.73;;;1.00;;
7410;SDS011;3747;48.628;9.058;2022-09-09T07:38:18;4.40;;;0.80;;
7410;SDS011;3747;48.628;9.058;2022-09-09T07:40:45;2.67;;;0.90;;
7410;SDS011;3747;48.628;9.058;2022-09-09T07:43:12;1.87;;;0.80;;
7410;SDS011;3747;48.628;9.058;2022-09-09T07:45:39;3.13;;;1.10;;
7410;SDS011;3747;48.628;9.058;2022-09-09T07:48:07;2.40;;;0.80;;
7410;SDS011;3747;48.628;9.058;2022-09-09T07:50:34;1.77;;;1.00;;
7410;SDS011;3747;48.628;9.058;2022-09-09T07:53:02;5.20;;;1.10;;
7410;SDS011;3747;48.628;9.058;2022-09-09T07:55:31;4.03;;;1.10;;
7410;SDS011;3747;48.628;9.058;2022-09-09T07:57:59;3.53;;;0.97;;
7410;SDS011;3747;48.628;9.058;2022-09-09T08:00:26;1.90;;;0.90;;
7410;SDS011;3747;48.628;9.058;2022-09-09T08:02:53;3.20;;;0.93;;
7410;SDS011;3747;48.628;9.058;2022-09-09T08:05:20;2.73;;;1.10;;
7410;SDS011;3747;48.628;9.058;2022-09-09T08:07:47;1.90;;;0.83;;
7410;SDS011;3747;48.628;9.058;2022-09-09T08:10:16;3.10;;;0.90;;
7410;SDS011;3747;48.628;9.058;2022-09-09T08:12:43;0.80;;;0.60;;
7410;SDS011;3747;48.628;9.058;2022-09-09T08:15:10;4.80;;;0.87;;
7410;SDS011;3747;48.628;9.058;2022-09-09T08:17:37;2.57;;;0.83;;
7410;SDS011;3747;48.628;9.058;2022-09-09T08:20:04;5.00;;;0.83;;
7410;SDS011;3747;48.628;9.058;2022-09-09T08:22:31;2.00;;;0.90;;
7410;SDS011;3747;48.628;9.058;2022-09-09T08:24:59;2.47;;;0.77;;
7410;SDS011;3747;48.628;9.058;2022-09-09T08:27:28;2.00;;;0.93;;
7410;SDS011;3747;48.628;9.058;2022-09-09T08:29:55;1.20;;;1.03;;
7410;SDS011;3747;48.628;9.058;2022-09-09T08:32:22;2.53;;;0.60;;
7410;SDS011;3747;48.628;9.058;2022-09-09T08:34:48;2.00;;;0.67;;
7410;SDS011;3747;48.628;9.058;2022-09-09T08:37:16;1.70;;;0.77;;
7410;SDS011;3747;48.628;9.058;2022-09-09T08:39:42;2.13;;;0.50;;
7410;SDS011;3747;48.628;9.058;2022-09-09T08:42:30;2.83;;;1.20;;
7410;SDS011;3747;48.628;9.058;2022-09-09T08:45:15;2.77;;;0.83;;
7410;SDS011;3747;48.628;9.058;2022-09-09T08:47:54;3.00;;;0.90;;
7410;SDS011;3747;48.628;9.058;2022-09-09T08:50:34;3.13;;;1.00;;
7410;SDS011;3747;48.628;9.058;2022-09-09T08:53:04;4.00;;;0.83;;
7410;SDS011;3747;48.628;9.058;2022-09-09T08:55:37;2.77;;;1.10;;
7410;SDS011;3747;48.628;9.058;2022-09-09T08:58:11;2.63;;;0.80;;
7410;SDS011;3747;48.628;9.058;2022-09-09T09:00:42;1.20;;;0.87;;
7410;SDS011;3747;48.628;9.058;2022-09-09T09:03:21;3.03;;;0.80;;
7410;SDS011;3747;48.628;9.058;2022-09-09T09:05:55;3.50;;;1.00;;
7410;SDS011;3747;48.628;9.058;2022-09-09T09:08:30;3.30;;;0.90;;
7410;SDS011;3747;48.628;9.058;2022-09-09T09:11:04;2.63;;;0.80;;
7410;SDS011;3747;48.628;9.058;2022-09-09T09:13:34;4.13;;;1.00;;
7410;SDS011;3747;48.628;9.058;2022-09-09T09:16:06;1.57;;;0.70;;
7410;SDS011;3747;48.628;9.058;2022-09-09T09:18:40;1.70;;;0.80;;
7410;SDS011;3747;48.628;9.058;2022-09-09T09:21:08;2.90;;;1.23;;
7410;SDS011;3747;48.628;9.058;2022-09-09T09:23:41;2.67;;;1.17;;
7410;SDS011;3747;48.628;9.058;2022-09-09T09:26:11;0.77;;;0.30;;
7410;SDS011;3747;48.628;9.058;2022-09-09T09:28:39;1.63;;;0.40;;
7410;SDS011;3747;48.628;9.058;2022-09-09T09:31:07;2.00;;;0.57;;
7410;SDS011;3747;48.628;9.058;2022-09-09T09:33:38;1.20;;;0.57;;
7410;SDS011;3747;48.628;9.058;2022-09-09T09:36:13;1.90;;;0.60;;
7410;SDS011;3747;48.628;9.058;2022-09-09T09:38:51;2.47;;;0.90;;
7410;SDS011;3747;48.628;9.058;2022-09-09T09:41:28;2.17;;;0.70;;
7410;SDS011;3747;48.628;9.058;2022-09-09T09:44:04;3.03;;;0.80;;
7410;SDS011;3747;48.628;9.058;2022-09-09T09:46:44;2.90;;;1.00;;
7410;SDS011;3747;48.628;9.058;2022-09-09T09:49:18;3.13;;;0.93;;
7410;SDS011;3747;48.628;9.058;2022-09-09T09:51:48;3.03;;;0.77;;
7410;SDS011;3747;48.628;9.058;2022-09-09T09:54:16;2.77;;;0.80;;
7410;SDS011;3747;48.628;9.058;2022-09-09T09:56:48;1.33;;;0.73;;
7410;SDS011;3747;48.628;9.058;2022-09-09T09:59:20;2.30;;;1.33;;
7410;SDS011;3747;48.628;9.058;2022-09-09T10:01:49;2.90;;;1.23;;
7410;SDS011;3747;48.628;9.058;2022-09-09T10:04:17;2.17;;;0.70;;
7410;SDS011;3747;48.628;9.058;2022-09-09T10:06:45;2.83;;;0.80;;
7410;SDS011;3747;48.628;9.058;2022-09-09T10:09:21;4.00;;;0.90;;
7410;SDS011;3747;48.628;9.058;2022-09-09T10:11:52;5.30;;;1.20;;
7410;SDS011;3747;48.628;9.058;2022-09-09T10:14:25;2.87;;;0.90;;
7410;SDS011;3747;48.628;9.058;2022-09-09T10:17:04;4.43;;;0.90;;
7410;SDS011;3747;48.628;9.058;2022-09-09T10:19:42;1.80;;;0.70;;
7410;SDS011;3747;48.628;9.058;2022-09-09T10:22:24;1.97;;;0.80;;
7410;SDS011;3747;48.628;9.058;2022-09-09T10:25:11;2.77;;;0.80;;
7410;SDS011;3747;48.628;9.058;2022-09-09T10:27:49;2.83;;;0.50;;
7410;SDS011;3747;48.628;9.058;2022-09-09T10:30:29;2.17;;;0.80;;
7410;SDS011;3747;48.628;9.058;2022-09-09T10:33:01;2.13;;;0.60;;
7410;SDS011;3747;48.628;9.058;2022-09-09T10:35:34;1.20;;;0.30;;
7410;SDS011;3747;48.628;9.058;2022-09-09T10:38:16;1.40;;;0.57;;
7410;SDS011;3747;48.628;9.058;2022-09-09T10:40:59;2.67;;;0.60;;
7410;SDS011;3747;48.628;9.058;2022-09-09T10:43:38;1.90;;;0.70;;
7410;SDS011;3747;48.628;9.058;2022-09-09T10:46:18;3.10;;;0.70;;
7410;SDS011;3747;48.628;9.058;2022-09-09T10:49:01;2.57;;;0.70;;
7410;SDS011;3747;48.628;9.058;2022-09-09T10:51:39;1.40;;;0.47;;
7410;SDS011;3747;48.628;9.058;2022-09-09T10:54:19;2.27;;;0.53;;
7410;SDS011;3747;48.628;9.058;2022-09-09T10:56:55;1.97;;;0.70;;
7410;SDS011;3747;48.628;9.058;2022-09-09T10:59:25;2.13;;;0.57;;
7410;SDS011;3747;48.628;9.058;2022-09-09T11:01:57;2.77;;;0.70;;
7410;SDS011;3747;48.628;9.058;2022-09-09T11:04:30;3.00;;;0.60;;
7410;SDS011;3747;48.628;9.058;2022-09-09T11:07:02;2.50;;;0.87;;
7410;SDS011;3747;48.628;9.058;2022-09-09T11:09:35;1.07;;;0.63;;
7410;SDS011;3747;48.628;9.058;2022-09-09T11:12:05;1.47;;;0.57;;
7410;SDS011;3747;48.628;9.058;2022-09-09T11:14:39;1.03;;;0.60;;
7410;SDS011;3747;48.628;9.058;2022-09-09T11:17:13;2.33;;;0.70;;
7410;SDS011;3747;48.628;9.058;2022-09-09T11:19:46;2.63;;;0.70;;
7410;SDS011;3747;48.628;9.058;2022-09-09T11:22:15;1.33;;;0.70;;
7410;SDS011;3747;48.628;9.058;2022-09-09T11:24:49;1.97;;;0.60;;
7410;SDS011;3747;48.628;9.058;2022-09-09T11:27:20;2.13;;;0.73;;
7410;SDS011;3747;48.628;9.058;2022-09-09T11:36:03;1.30;;;0.30;;
7410;SDS011;3747;48.628;9.058;2022-09-09T11:38:40;0.90;;;0.50;;
7410;SDS011;3747;48.628;9.058;2022-09-09T11:41:11;1.03;;;0.30;;
7410;SDS011;3747;48.628;9.058;2022-09-09T11:43:41;0.30;;;0.20;;
7410;SDS011;3747;48.628;9.058;2022-09-09T11:46:09;0.80;;;0.20;;
7410;SDS011;3747;48.628;9.058;2022-09-09T11:48:38;0.30;;;0.10;;
7410;SDS011;3747;48.628;9.058;2022-09-09T11:51:10;1.33;;;0.20;;
7410;SDS011;3747;48.628;9.058;2022-09-09T11:53:47;0.30;;;0.23;;
7410;SDS011;3747;48.628;9.058;2022-09-09T11:56:23;1.57;;;0.43;;
7410;SDS011;3747;48.628;9.058;2022-09-09T11:58:59;0.30;;;0.20;;
7410;SDS011;3747;48.628;9.058;2022-09-09T12:01:29;0.63;;;0.20;;
7410;SDS011;3747;48.628;9.058;2022-09-09T12:04:10;0.20;;;0.20;;
7410;SDS011;3747;48.628;9.058;2022-09-09T12:07:01;0.20;;;0.10;;
7410;SDS011;3747;48.628;9.058;2022-09-09T12:12:23;0.10;;;0.10;;
7410;SDS011;3747;48.628;9.058;2022-09-09T12:14:55;0.97;;;0.30;;
7410;SDS011;3747;48.628;9.058;2022-09-09T12:17:25;1.17;;;0.37;;
7410;SDS011;3747;48.628;9.058;2022-09-09T12:20:00;0.90;;;0.27;;
7410;SDS011;3747;48.628;9.058;2022-09-09T12:22:37;2.33;;;0.60;;
7410;SDS011;3747;48.628;9.058;2022-09-09T12:25:16;2.40;;;0.60;;
7410;SDS011;3747;48.628;9.058;2022-09-09T12:27:52;1.23;;;0.30;;
7410;SDS011;3747;48.628;9.058;2022-09-09T12:30:31;3.00;;;0.70;;
7410;SDS011;3747;48.628;9.058;2022-09-09T12:33:07;2.40;;;0.70;;
7410;SDS011;3747;48.628;9.058;2022-09-09T12:35:36;1.17;;;0.40;;
7410;SDS011;3747;48.628;9.058;2022-09-09T12:38:05;3.13;;;0.43;;
7410;SDS011;3747;48.628;9.058;2022-09-09T12:40:38;3.00;;;0.53;;
7410;SDS011;3747;48.628;9.058;2022-09-09T12:43:15;1.40;;;0.67;;
7410;SDS011;3747;48.628;9.058;2022-09-09T12:45:44;1.07;;;0.50;;
7410;SDS011;3747;48.628;9.058;2022-09-09T12:48:12;2.53;;;0.60;;
7410;SDS011;3747;48.628;9.058;2022-09-09T12:50:43;1.43;;;0.43;;
7410;SDS011;3747;48.628;9.058;2022-09-09T12:53:14;3.63;;;0.70;;
7410;SDS011;3747;48.628;9.058;2022-09-09T12:55:49;1.23;;;0.33;;
7410;SDS011;3747;48.628;9.058;2022-09-09T12:58:17;4.23;;;0.60;;
7410;SDS011;3747;48.628;9.058;2022-09-09T13:00:48;1.70;;;0.47;;
7410;SDS011;3747;48.628;9.058;2022-09-09T13:03:17;1.67;;;0.50;;
7410;SDS011;3747;48.628;9.058;2022-09-09T13:05:45;1.97;;;0.40;;
7410;SDS011;3747;48.628;9.058;2022-09-09T13:08:14;4.50;;;0.60;;
7410;SDS011;3747;48.628;9.058;2022-09-09T13:10:46;1.83;;;0.50;;
7410;SDS011;3747;48.628;9.058;2022-09-09T13:13:14;5.63;;;0.60;;
7410;SDS011;3747;48.628;9.058;2022-09-09T13:15:48;1.33;;;0.60;;
7410;SDS011;3747;48.628;9.058;2022-09-09T13:18:17;1.07;;;0.30;;
7410;SDS011;3747;48.628;9.058;2022-09-09T13:20:47;0.90;;;0.43;;
7410;SDS011;3747;48.628;9.058;2022-09-09T13:23:16;2.33;;;0.40;;
7410;SDS011;3747;48.628;9.058;2022-09-09T13:25:52;1.67;;;0.47;;
7410;SDS011;3747;48.628;9.058;2022-09-09T13:28:21;2.00;;;0.50;;
7410;SDS011;3747;48.628;9.058;2022-09-09T13:30:55;1.23;;;0.30;;
7410;SDS011;3747;48.628;9.058;2022-09-09T13:33:29;1.67;;;0.50;;
7410;SDS011;3747;48.628;9.058;2022-09-09T13:35:58;0.40;;;0.23;;
7410;SDS011;3747;48.628;9.058;2022-09-09T13:38:29;3.03;;;0.43;;
7410;SDS011;3747;48.628;9.058;2022-09-09T13:41:00;2.20;;;0.47;;
7410;SDS011;3747;48.628;9.058;2022-09-09T13:43:29;2.17;;;0.40;;
7410;SDS011;3747;48.628;9.058;2022-09-09T13:45:58;1.80;;;0.30;;
7410;SDS011;3747;48.628;9.058;2022-09-09T13:48:26;1.43;;;0.60;;
7410;SDS011;3747;48.628;9.058;2022-09-09T13:50:58;1.07;;;0.30;;
7410;SDS011;3747;48.628;9.058;2022-09-09T13:53:29;1.07;;;0.40;;
7410;SDS011;3747;48.628;9.058;2022-09-09T13:55:56;1.43;;;0.47;;
7410;SDS011;3747;48.628;9.058;2022-09-09T13:58:23;1.30;;;0.20;;
7410;SDS011;3747;48.628;9.058;2022-09-09T14:00:51;1.87;;;0.53;;
7410;SDS011;3747;48.628;9.058;2022-09-09T14:03:18;1.60;;;0.40;;
7410;SDS011;3747;48.628;9.058;2022-09-09T14:05:45;1.20;;;0.43;;
7410;SDS011;3747;48.628;9.058;2022-09-09T14:08:15;1.17;;;0.40;;
7410;SDS011;3747;48.628;9.058;2022-09-09T14:10:48;0.57;;;0.30;;
7410;SDS011;3747;48.628;9.058;2022-09-09T14:13:15;2.27;;;0.60;;
7410;SDS011;3747;48.628;9.058;2022-09-09T14:15:42;1.47;;;0.37;;
7410;SDS011;3747;48.628;9.058;2022-09-09T14:18:09;1.77;;;0.30;;
7410;SDS011;3747;48.628;9.058;2022-09-09T14:20:38;0.67;;;0.33;;
7410;SDS011;3747;48.628;9.058;2022-09-09T14:23:09;0.40;;;0.20;;
7410;SDS011;3747;48.628;9.058;2022-09-09T14:25:39;0.50;;;0.30;;
7410;SDS011;3747;48.628;9.058;2022-09-09T14:28:09;0.20;;;0.17;;
7410;SDS011;3747;48.628;9.058;2022-09-09T14:30:37;0.77;;;0.20;;
7410;SDS011;3747;48.628;9.058;2022-09-09T14:33:05;1.47;;;0.30;;
7410;SDS011;3747;48.628;9.058;2022-09-09T14:35:31;2.67;;;0.40;;
7410;SDS011;3747;48.628;9.058;2022-09-09T14:37:59;1.17;;;0.40;;
7410;SDS011;3747;48.628;9.058;2022-09-09T14:40:27;1.63;;;0.53;;
7410;SDS011;3747;48.628;9.058;2022-09-09T14:42:54;0.50;;;0.40;;
7410;SDS011;3747;48.628;9.058;2022-09-09T14:45:23;1.03;;;0.40;;
7410;SDS011;3747;48.628;9.058;2022-09-09T14:47:50;1.63;;;0.20;;
7410;SDS011;3747;48.628;9.058;2022-09-09T14:50:17;0.50;;;0.40;;
7410;SDS011;3747;48.628;9.058;2022-09-09T14:52:44;1.53;;;0.40;;
7410;SDS011;3747;48.628;9.058;2022-09-09T14:55:10;2.03;;;0.37;;
7410;SDS011;3747;48.628;9.058;2022-09-09T14:57:37;1.67;;;0.50;;
7410;SDS011;3747;48.628;9.058;2022-09-09T15:00:05;2.30;;;0.57;;
7410;SDS011;3747;48.628;9.058;2022-09-09T15:02:35;1.43;;;0.30;;
7410;SDS011;3747;48.628;9.058;2022-09-09T15:05:07;1.83;;;0.30;;
7410;SDS011;3747;48.628;9.058;2022-09-09T15:07:35;2.07;;;0.50;;
7410;SDS011;3747;48.628;9.058;2022-09-09T15:10:03;2.10;;;0.30;;
7410;SDS011;3747;48.628;9.058;2022-09-09T15:12:30;1.80;;;0.50;;
7410;SDS011;3747;48.628;9.058;2022-09-09T15:14:58;2.00;;;0.50;;
7410;SDS011;3747;48.628;9.058;2022-09-09T15:17:25;1.97;;;0.50;;
7410;SDS011;3747;48.628;9.058;2022-09-09T15:19:53;1.00;;;0.30;;
7410;SDS011;3747;48.628;9.058;2022-09-09T15:22:20;1.83;;;0.40;;
7410;SDS011;3747;48.628;9.058;2022-09-09T15:24:49;2.80;;;0.70;;
7410;SDS011;3747;48.628;9.058;2022-09-09T15:27:16;2.07;;;0.37;;
7410;SDS011;3747;48.628;9.058;2022-09-09T15:29:43;3.17;;;0.40;;
7410;SDS011;3747;48.628;9.058;2022-09-09T15:32:10;1.00;;;0.40;;
7410;SDS011;3747;48.628;9.058;2022-09-09T15:34:36;1.20;;;0.40;;
7410;SDS011;3747;48.628;9.058;2022-09-09T15:37:04;0.83;;;0.30;;
7410;SDS011;3747;48.628;9.058;2022-09-09T15:39:32;1.67;;;0.67;;
7410;SDS011;3747;48.628;9.058;2022-09-09T15:41:59;1.17;;;0.43;;
7410;SDS011;3747;48.628;9.058;2022-09-09T15:44:26;0.70;;;0.40;;